createdAt,value
2022-08-16T00:01:24.429Z,28.15
2022-08-16T00:03:53.087Z,27.60
2022-08-16T00:06:20.457Z,27.52
2022-08-16T00:08:48.031Z,27.63
2022-08-16T00:11:16.804Z,26.30
2022-08-16T00:13:54.276Z,27.23
2022-08-16T00:17:00.617Z,26.98
2022-08-16T00:19:22.541Z,26.67
2022-08-16T00:24:32.211Z,25.70
2022-08-16T00:27:00.679Z,27.60
2022-08-16T00:29:29.808Z,26.85
2022-08-16T00:31:59.664Z,29.08
2022-08-16T00:34:43.391Z,27.13
2022-08-16T00:37:17.287Z,25.33
2022-08-16T00:39:46.995Z,27.30
2022-08-16T00:42:30.203Z,27.33
2022-08-16T00:45:08.249Z,26.13
2022-08-16T00:47:42.543Z,26.92
2022-08-16T00:50:16.453Z,26.58
2022-08-16T00:52:50.193Z,27.40
2022-08-16T00:55:20.208Z,26.75
2022-08-16T00:57:59.951Z,27.83
2022-08-16T01:00:32.275Z,26.52
2022-08-16T01:03:04.523Z,26.77
2022-08-16T01:05:32.955Z,26.23
2022-08-16T01:08:00.369Z,27.23
2022-08-16T01:10:33.197Z,27.77
2022-08-16T01:13:12.417Z,27.83
2022-08-16T01:15:47.626Z,26.52
2022-08-16T01:18:39.226Z,25.67
2022-08-16T01:21:41.170Z,28.17
2022-08-16T01:24:51.835Z,27.92
2022-08-16T01:27:31.083Z,26.17
2022-08-16T01:30:03.972Z,26.45
2022-08-16T01:32:34.296Z,27.92
2022-08-16T01:35:04.824Z,27.90
2022-08-16T01:37:40.222Z,27.23
2022-08-16T01:40:10.549Z,25.85
2022-08-16T01:42:37.735Z,27.35
2022-08-16T01:45:09.514Z,27.45
2022-08-16T01:47:49.284Z,28.63
2022-08-16T01:50:43.242Z,26.25
2022-08-16T01:53:07.220Z,27.02
2022-08-16T01:55:37.003Z,27.40
2022-08-16T01:58:07.805Z,27.92
2022-08-16T02:00:37.743Z,27.08
2022-08-16T02:03:04.814Z,26.00
2022-08-16T02:05:31.801Z,26.75
2022-08-16T02:08:03.440Z,28.02
2022-08-16T02:10:31.476Z,28.20
2022-08-16T02:13:01.723Z,28.23
2022-08-16T02:15:40.352Z,27.00
2022-08-16T02:18:12.548Z,26.23
2022-08-16T02:20:42.548Z,27.67
2022-08-16T02:23:12.756Z,26.77
2022-08-16T02:25:52.575Z,25.90
2022-08-16T02:28:23.752Z,28.10
2022-08-16T02:30:51.768Z,27.58
2022-08-16T02:33:20.676Z,28.13
2022-08-16T02:35:58.129Z,27.15
2022-08-16T02:38:29.241Z,27.48
2022-08-16T02:40:59.210Z,25.75
2022-08-16T02:43:28.322Z,26.63
2022-08-16T02:45:56.484Z,27.52
2022-08-16T02:48:29.309Z,27.00
2022-08-16T02:51:06.551Z,27.52
2022-08-16T02:53:44.728Z,28.23
2022-08-16T02:56:15.569Z,26.77
2022-08-16T02:58:44.384Z,23.73
2022-08-16T03:01:24.026Z,26.15
2022-08-16T03:04:29.816Z,27.48
2022-08-16T03:06:43.092Z,26.52
2022-08-16T03:09:13.838Z,28.10
2022-08-16T03:11:44.795Z,27.65
2022-08-16T03:14:12.612Z,27.92
2022-08-16T03:16:58.612Z,26.85
2022-08-16T03:19:47.038Z,28.63
2022-08-16T03:22:28.876Z,27.20
2022-08-16T03:24:58.310Z,26.13
2022-08-16T03:27:31.365Z,24.23
2022-08-16T03:30:28.024Z,23.45
2022-08-16T03:32:55.373Z,23.25
2022-08-16T03:35:32.820Z,21.40
2022-08-16T03:38:03.941Z,21.05
2022-08-16T03:40:34.030Z,22.42
2022-08-16T03:43:20.345Z,21.90
2022-08-16T03:45:49.192Z,21.52
2022-08-16T03:48:19.858Z,21.15
2022-08-16T03:50:59.555Z,22.50
2022-08-16T03:53:37.657Z,21.98
2022-08-16T03:56:07.895Z,21.65
2022-08-16T03:58:45.771Z,21.30
2022-08-16T04:01:15.551Z,22.48
2022-08-16T04:03:43.116Z,20.83
2022-08-16T04:06:11.245Z,21.23
2022-08-16T04:08:39.707Z,20.58
2022-08-16T04:11:06.920Z,20.63
2022-08-16T04:14:01.337Z,20.35
2022-08-16T04:16:26.212Z,19.85
2022-08-16T04:19:02.456Z,19.05
2022-08-16T04:21:32.035Z,18.67
2022-08-16T04:24:00.218Z,20.10
2022-08-16T04:26:31.202Z,19.25
2022-08-16T04:29:17.258Z,19.70
2022-08-16T04:31:56.913Z,19.50
2022-08-16T04:34:32.334Z,18.73
2022-08-16T04:37:01.358Z,17.90
2022-08-16T04:39:37.046Z,17.83
2022-08-16T04:42:16.159Z,17.42
2022-08-16T04:44:54.320Z,18.00
2022-08-16T04:47:33.133Z,18.30
2022-08-16T04:50:10.387Z,17.38
2022-08-16T04:52:38.189Z,17.63
2022-08-16T04:55:08.538Z,18.98
2022-08-16T04:57:37.401Z,16.85
2022-08-16T05:00:31.270Z,17.17
2022-08-16T05:02:58.850Z,15.35
2022-08-16T05:05:32.651Z,17.27
2022-08-16T05:08:00.904Z,16.23
2022-08-16T05:10:47.925Z,16.33
2022-08-16T05:13:17.597Z,16.52
2022-08-16T05:15:44.861Z,16.45
2022-08-16T05:18:15.898Z,16.50
2022-08-16T05:21:01.482Z,17.20
2022-08-16T05:23:31.804Z,15.73
2022-08-16T05:25:59.851Z,16.60
2022-08-16T05:28:31.004Z,16.15
2022-08-16T05:31:06.737Z,15.55
2022-08-16T05:33:34.054Z,16.98
2022-08-16T05:36:03.800Z,16.50
2022-08-16T05:38:36.467Z,15.63
2022-08-16T05:41:07.526Z,17.33
2022-08-16T05:43:43.153Z,16.15
2022-08-16T05:46:31.023Z,14.30
2022-08-16T05:49:06.127Z,14.07
2022-08-16T05:51:41.468Z,14.45
2022-08-16T05:54:11.507Z,14.85
2022-08-16T05:56:42.913Z,13.93
2022-08-16T05:59:10.945Z,14.40
2022-08-16T06:01:39.391Z,13.85
2022-08-16T06:04:12.847Z,14.05
2022-08-16T06:06:47.697Z,14.17
2022-08-16T06:09:25.977Z,14.27
2022-08-16T06:12:27.289Z,13.63
2022-08-16T06:14:59.362Z,12.63
2022-08-16T06:17:41.195Z,14.13
2022-08-16T06:20:34.719Z,13.50
2022-08-16T06:23:16.861Z,12.70
2022-08-16T06:25:44.743Z,13.98
2022-08-16T06:28:35.758Z,13.80
2022-08-16T06:31:04.824Z,13.88
2022-08-16T06:33:41.410Z,13.68
2022-08-16T06:36:10.427Z,14.30
2022-08-16T06:38:38.780Z,14.52
2022-08-16T06:41:22.412Z,14.95
2022-08-16T06:43:51.367Z,15.45
2022-08-16T06:46:31.936Z,14.90
2022-08-16T06:48:59.533Z,15.50
2022-08-16T06:51:48.215Z,15.38
2022-08-16T06:54:14.159Z,14.63
2022-08-16T06:56:42.551Z,14.77
2022-08-16T06:59:09.564Z,16.00
2022-08-16T07:01:46.320Z,14.82
2022-08-16T07:04:33.021Z,14.88
2022-08-16T07:07:06.309Z,14.90
2022-08-16T07:09:37.143Z,14.70
2022-08-16T07:12:05.582Z,15.65
2022-08-16T07:14:33.809Z,16.73
2022-08-16T07:17:02.392Z,15.23
2022-08-16T07:20:29.200Z,16.27
2022-08-16T07:22:38.731Z,13.95
2022-08-16T07:25:12.056Z,14.98
2022-08-16T07:27:39.523Z,14.55
2022-08-16T07:30:39.691Z,13.98
2022-08-16T07:32:58.668Z,14.40
2022-08-16T07:35:26.235Z,15.43
2022-08-16T07:37:53.428Z,15.52
2022-08-16T07:40:31.842Z,15.55
2022-08-16T07:43:07.659Z,14.70
2022-08-16T07:45:34.863Z,15.68
2022-08-16T07:48:11.837Z,14.95
2022-08-16T07:50:56.311Z,14.85
2022-08-16T07:53:30.554Z,14.95
2022-08-16T07:56:00.680Z,15.23
2022-08-16T07:58:33.853Z,15.20
2022-08-16T08:01:10.729Z,15.35
2022-08-16T08:03:48.292Z,15.32
2022-08-16T08:06:18.628Z,16.42
2022-08-16T08:08:51.045Z,16.70
2022-08-16T08:11:21.372Z,15.80
2022-08-16T08:13:49.293Z,17.13
2022-08-16T08:16:19.576Z,17.17
2022-08-16T08:18:50.186Z,18.23
2022-08-16T08:21:26.281Z,16.60
2022-08-16T08:23:56.550Z,17.95
2022-08-16T08:26:25.303Z,17.95
2022-08-16T08:28:52.723Z,17.60
2022-08-16T08:31:20.156Z,19.17
2022-08-16T08:33:51.403Z,19.83
2022-08-16T08:36:33.104Z,20.65
2022-08-16T08:39:00.541Z,19.25
2022-08-16T08:41:29.446Z,19.67
2022-08-16T08:43:58.493Z,21.05
2022-08-16T08:46:26.366Z,19.58
2022-08-16T08:48:59.259Z,18.83
2022-08-16T08:51:35.801Z,17.23
2022-08-16T08:54:06.847Z,15.35
2022-08-16T08:56:37.841Z,13.57
2022-08-16T08:59:20.070Z,12.05
2022-08-16T09:01:57.014Z,12.48
2022-08-16T09:04:26.503Z,11.23
2022-08-16T09:06:54.013Z,11.35
2022-08-16T09:09:22.179Z,11.57
2022-08-16T09:12:00.222Z,12.25
2022-08-16T09:14:33.143Z,11.68
2022-08-16T09:17:02.934Z,12.48
2022-08-16T09:19:34.616Z,13.27
2022-08-16T09:22:01.785Z,11.68
2022-08-16T09:24:46.751Z,11.80
2022-08-16T09:27:15.967Z,11.70
2022-08-16T09:29:44.799Z,12.00
2022-08-16T09:32:28.511Z,11.20
2022-08-16T09:34:58.195Z,10.85
2022-08-16T09:37:29.454Z,10.80
2022-08-16T09:39:59.622Z,11.00
2022-08-16T09:42:28.867Z,11.13
2022-08-16T09:45:10.747Z,10.80
2022-08-16T09:47:56.506Z,10.45
2022-08-16T09:50:37.045Z,11.80
2022-08-16T09:53:18.112Z,11.13
2022-08-16T09:55:49.262Z,10.38
2022-08-16T09:58:41.956Z,9.73
2022-08-16T10:01:05.745Z,9.05
2022-08-16T10:03:35.571Z,9.20
2022-08-16T10:06:02.538Z,8.63
2022-08-16T10:08:29.445Z,9.52
2022-08-16T10:11:15.001Z,9.93
2022-08-16T10:13:51.050Z,9.48
2022-08-16T10:16:18.050Z,9.88
2022-08-16T10:19:00.398Z,10.68
2022-08-16T10:21:32.319Z,10.82
2022-08-16T10:23:59.274Z,11.02
2022-08-16T10:27:19.647Z,11.85
2022-08-16T10:29:19.780Z,17.13
2022-08-16T10:31:53.748Z,15.93
2022-08-16T10:34:31.843Z,17.42
2022-08-16T10:37:00.641Z,10.10
2022-08-16T10:39:41.776Z,9.45
2022-08-16T10:42:13.373Z,8.38
2022-08-16T10:44:42.412Z,9.52
2022-08-16T10:47:10.130Z,9.60
2022-08-16T10:49:39.721Z,10.30
2022-08-16T10:52:18.415Z,9.18
2022-08-16T10:57:33.322Z,10.50
2022-08-16T11:00:04.843Z,9.82
2022-08-16T11:03:41.880Z,10.63
2022-08-16T11:05:18.959Z,9.48
2022-08-16T11:07:55.025Z,10.93
2022-08-16T11:13:57.185Z,9.55
2022-08-16T11:19:06.250Z,9.48
2022-08-16T11:22:22.683Z,10.27
2022-08-16T11:24:41.702Z,9.40
2022-08-16T11:27:19.493Z,8.73
2022-08-16T11:29:49.882Z,9.70
2022-08-16T11:32:20.228Z,8.68
2022-08-16T11:35:10.936Z,9.20
2022-08-16T11:38:23.453Z,8.57
2022-08-16T11:40:32.819Z,8.02
2022-08-16T11:43:04.132Z,8.23
2022-08-16T11:45:33.695Z,8.05
2022-08-16T11:48:03.557Z,8.75
2022-08-16T11:50:33.545Z,8.38
2022-08-16T11:53:03.770Z,8.93
2022-08-16T11:55:31.539Z,8.38
2022-08-16T11:58:00.365Z,8.40
2022-08-16T12:00:49.710Z,8.52
2022-08-16T12:03:17.921Z,8.35
2022-08-16T12:05:46.015Z,8.30
2022-08-16T12:08:13.070Z,8.77
2022-08-16T12:10:40.885Z,8.00
2022-08-16T12:13:10.565Z,9.13
2022-08-16T12:15:38.018Z,9.20
2022-08-16T12:18:06.800Z,9.00
2022-08-16T12:20:37.116Z,8.95
2022-08-16T12:23:05.425Z,8.90
2022-08-16T12:25:33.990Z,9.43
2022-08-16T12:28:02.874Z,9.02
2022-08-16T12:30:38.606Z,8.20
2022-08-16T12:33:07.586Z,8.80
2022-08-16T12:35:36.878Z,8.63
2022-08-16T12:38:38.283Z,8.48
2022-08-16T12:40:55.671Z,8.77
2022-08-16T12:43:24.959Z,9.43
2022-08-16T12:45:55.119Z,8.55
2022-08-16T12:48:45.788Z,8.50
2022-08-16T12:51:24.075Z,7.90
2022-08-16T12:53:53.069Z,8.43
2022-08-16T12:56:22.137Z,8.63
2022-08-16T12:58:55.875Z,8.25
2022-08-16T13:01:26.892Z,8.32
2022-08-16T13:04:12.428Z,9.07
2022-08-16T13:06:46.003Z,8.75
2022-08-16T13:09:23.666Z,9.25
2022-08-16T13:12:04.458Z,8.68
2022-08-16T13:14:40.186Z,8.95
2022-08-16T13:17:18.658Z,8.65
2022-08-16T13:22:35.935Z,8.98
2022-08-16T13:25:02.999Z,8.38
2022-08-16T13:27:59.773Z,9.05
2022-08-16T13:30:36.476Z,8.30
2022-08-16T13:33:12.298Z,9.50
2022-08-16T13:35:46.173Z,9.57
2022-08-16T13:38:24.992Z,9.32
2022-08-16T13:40:56.069Z,9.32
2022-08-16T13:43:27.311Z,9.60
2022-08-16T13:45:56.378Z,9.10
2022-08-16T13:48:37.037Z,9.43
2022-08-16T13:51:10.871Z,8.85
2022-08-16T13:53:45.192Z,9.50
2022-08-16T13:56:22.312Z,10.13
2022-08-16T13:58:54.093Z,10.00
2022-08-16T14:01:22.207Z,9.27
2022-08-16T14:03:53.138Z,9.80
2022-08-16T14:06:21.646Z,9.77
2022-08-16T14:08:59.272Z,9.38
2022-08-16T14:11:34.666Z,8.90
2022-08-16T14:14:01.904Z,10.10
2022-08-16T14:16:33.571Z,9.18
2022-08-16T14:19:02.129Z,9.65
2022-08-16T14:21:35.471Z,9.43
2022-08-16T14:24:12.882Z,9.40
2022-08-16T14:26:49.930Z,9.27
2022-08-16T14:32:06.693Z,8.63
2022-08-16T14:34:33.695Z,8.75
2022-08-16T14:37:00.862Z,8.88
2022-08-16T14:39:27.917Z,9.43
2022-08-16T14:41:55.960Z,8.82
2022-08-16T14:44:23.771Z,9.10
2022-08-16T14:46:53.196Z,9.35
2022-08-16T14:49:20.220Z,9.50
2022-08-16T14:51:48.901Z,9.68
2022-08-16T14:54:15.843Z,8.77
2022-08-16T14:56:46.751Z,8.95
2022-08-16T14:59:21.531Z,8.80
2022-08-16T15:01:59.548Z,9.60
2022-08-16T15:04:39.217Z,9.27
2022-08-16T15:07:10.836Z,9.15
2022-08-16T15:09:44.415Z,8.95
2022-08-16T15:12:30.920Z,8.23
2022-08-16T15:15:04.651Z,9.57
2022-08-16T15:17:41.126Z,9.63
2022-08-16T15:20:09.615Z,9.05
2022-08-16T15:22:41.053Z,9.65
2022-08-16T15:25:13.223Z,10.35
2022-08-16T15:27:43.618Z,9.13
2022-08-16T15:30:57.711Z,9.45
2022-08-16T15:33:09.215Z,9.63
2022-08-16T15:35:38.695Z,10.45
2022-08-16T15:38:08.955Z,9.35
2022-08-16T15:40:37.262Z,9.15
2022-08-16T15:43:33.690Z,9.35
2022-08-16T15:46:35.312Z,8.48
2022-08-16T15:49:12.125Z,8.68
2022-08-16T15:51:40.013Z,8.40
2022-08-16T15:54:21.087Z,7.50
2022-08-16T15:56:55.432Z,8.70
2022-08-16T15:59:27.181Z,10.52
2022-08-16T16:01:55.805Z,18.48
2022-08-16T16:04:25.893Z,21.08
2022-08-16T16:06:55.130Z,19.73
2022-08-16T16:09:26.131Z,22.83
2022-08-16T16:12:16.404Z,23.15
2022-08-16T16:14:52.455Z,19.73
2022-08-16T16:17:19.326Z,15.13
2022-08-16T16:19:50.732Z,13.27
2022-08-16T16:22:21.761Z,19.38
2022-08-16T16:24:52.426Z,27.05
2022-08-16T16:27:19.286Z,25.55
2022-08-16T16:29:57.818Z,25.52
2022-08-16T16:32:33.256Z,25.45
2022-08-16T16:35:06.127Z,24.00
2022-08-16T16:37:33.472Z,21.83
2022-08-16T16:40:01.264Z,19.40
2022-08-16T16:42:31.462Z,19.80
2022-08-16T16:45:01.450Z,20.77
2022-08-16T16:47:29.570Z,21.40
2022-08-16T16:49:56.497Z,21.02
2022-08-16T16:52:31.345Z,20.35
2022-08-16T16:55:12.810Z,19.45
2022-08-16T16:57:58.487Z,21.45
2022-08-16T17:00:26.005Z,15.23
2022-08-16T17:02:57.897Z,16.70
2022-08-16T17:05:32.384Z,19.75
2022-08-16T17:08:00.547Z,17.02
2022-08-16T17:10:46.355Z,14.48
2022-08-16T17:13:14.804Z,15.35
2022-08-16T17:15:42.182Z,19.98
2022-08-16T17:19:15.124Z,17.98
2022-08-16T17:20:56.996Z,17.52
2022-08-16T17:23:58.389Z,20.77
2022-08-16T17:26:11.567Z,24.80
2022-08-16T17:28:59.772Z,25.27
2022-08-16T17:31:38.430Z,25.92
2022-08-16T17:34:29.168Z,28.88
2022-08-16T17:36:54.905Z,27.77
2022-08-16T17:39:21.844Z,25.40
2022-08-16T17:41:51.195Z,26.02
2022-08-16T17:44:19.376Z,27.30
2022-08-16T17:46:52.354Z,29.52
2022-08-16T17:49:20.695Z,33.78
2022-08-16T17:51:47.950Z,38.25
2022-08-16T17:54:18.713Z,32.38
2022-08-16T17:57:01.145Z,30.80
2022-08-16T17:59:29.463Z,29.60
2022-08-16T18:01:57.170Z,31.58
2022-08-16T18:04:48.716Z,31.52
2022-08-16T18:07:11.644Z,30.98
2022-08-16T18:09:41.099Z,31.33
2022-08-16T18:12:41.586Z,30.48
2022-08-16T18:15:09.093Z,28.55
2022-08-16T18:17:36.071Z,30.30
2022-08-16T18:20:03.985Z,28.23
2022-08-16T18:22:33.863Z,25.92
2022-08-16T18:25:01.397Z,28.25
2022-08-16T18:27:29.872Z,25.88
2022-08-16T18:29:56.743Z,25.92
2022-08-16T18:32:24.853Z,28.70
2022-08-16T18:34:54.354Z,27.92
2022-08-16T18:37:22.921Z,29.88
2022-08-16T18:39:49.819Z,28.83
2022-08-16T18:42:16.723Z,30.73
2022-08-16T18:44:44.415Z,31.13
2022-08-16T18:47:11.483Z,31.13
2022-08-16T18:49:39.028Z,32.83
2022-08-16T18:52:06.215Z,31.50
2022-08-16T18:54:33.936Z,29.30
2022-08-16T18:57:20.822Z,29.42
2022-08-16T18:59:47.689Z,32.38
2022-08-16T19:02:56.177Z,32.65
2022-08-16T19:07:42.616Z,26.88
2022-08-16T19:10:10.124Z,26.88
2022-08-16T19:12:42.089Z,28.42
2022-08-16T19:15:14.406Z,28.38
2022-08-16T19:17:43.778Z,26.20
2022-08-16T19:20:11.855Z,25.20
2022-08-16T19:23:02.155Z,25.85
2022-08-16T19:25:47.493Z,24.90
2022-08-16T19:28:21.790Z,24.73
2022-08-16T19:31:10.947Z,26.05
2022-08-16T19:33:40.800Z,24.33
2022-08-16T19:36:31.140Z,22.83
2022-08-16T19:39:04.247Z,21.27
2022-08-16T19:41:33.506Z,23.33
2022-08-16T19:44:00.376Z,21.05
2022-08-16T19:46:27.196Z,21.65
2022-08-16T19:48:54.052Z,22.48
2022-08-16T19:51:20.880Z,23.88
2022-08-16T19:53:47.808Z,24.52
2022-08-16T19:56:14.663Z,24.35
2022-08-16T19:59:01.943Z,24.48
2022-08-16T20:01:29.154Z,20.70
2022-08-16T20:03:55.997Z,19.95
2022-08-16T20:06:37.471Z,21.38
2022-08-16T20:09:05.677Z,20.08
2022-08-16T20:11:32.599Z,22.02
2022-08-16T20:13:59.553Z,24.67
2022-08-16T20:16:26.509Z,26.13
2022-08-16T20:18:53.374Z,24.90
2022-08-16T20:21:20.206Z,24.20
2022-08-16T20:23:47.088Z,20.85
2022-08-16T20:26:14.076Z,21.80
2022-08-16T20:28:52.659Z,22.02
2022-08-16T20:31:24.861Z,23.00
2022-08-16T20:33:53.320Z,22.85
2022-08-16T20:36:20.479Z,22.75
2022-08-16T20:38:48.480Z,25.95
2022-08-16T20:41:16.544Z,26.23
2022-08-16T20:43:43.855Z,25.63
2022-08-16T20:46:12.987Z,26.55
2022-08-16T20:48:39.927Z,27.38
2022-08-16T20:51:10.478Z,28.20
2022-08-16T20:53:42.053Z,28.77
2022-08-16T20:56:11.608Z,30.27
2022-08-16T20:58:38.970Z,28.67
2022-08-16T21:01:08.461Z,32.03
2022-08-16T21:03:35.735Z,32.10
2022-08-16T21:06:03.045Z,32.08
2022-08-16T21:08:52.406Z,31.73
2022-08-16T21:11:17.949Z,30.95
2022-08-16T21:13:44.775Z,30.92
2022-08-16T21:16:11.809Z,33.28
2022-08-16T21:18:38.833Z,34.53
2022-08-16T21:21:05.703Z,31.40
2022-08-16T21:23:32.549Z,30.83
2022-08-16T21:25:59.965Z,30.50
2022-08-16T21:28:38.754Z,29.60
2022-08-16T21:31:14.848Z,28.20
2022-08-16T21:33:43.216Z,30.48
2022-08-16T21:36:11.184Z,31.65
2022-08-16T21:38:38.706Z,33.83
2022-08-16T21:41:08.237Z,32.25
2022-08-16T21:43:35.329Z,30.27
2022-08-16T21:46:03.788Z,33.03
2022-08-16T21:48:34.537Z,32.17
2022-08-16T21:51:10.742Z,28.60
2022-08-16T21:53:38.117Z,29.40
2022-08-16T21:56:06.202Z,28.30
2022-08-16T21:58:33.273Z,29.75
2022-08-16T22:01:00.849Z,29.90
2022-08-16T22:03:30.118Z,31.40
2022-08-16T22:06:11.986Z,29.70
2022-08-16T22:08:49.293Z,31.42
2022-08-16T22:11:22.349Z,31.92
2022-08-16T22:13:58.168Z,32.10
2022-08-16T22:16:31.695Z,31.35
2022-08-16T22:18:59.101Z,27.30
2022-08-16T22:21:26.119Z,26.60
2022-08-16T22:23:56.832Z,26.08
2022-08-16T22:26:30.993Z,22.27
2022-08-16T22:29:04.823Z,17.20
2022-08-16T22:31:32.348Z,16.02
2022-08-16T22:34:01.950Z,18.65
2022-08-16T22:36:30.138Z,18.52
2022-08-16T22:39:03.708Z,16.13
2022-08-16T22:41:32.294Z,17.42
2022-08-16T22:44:01.365Z,20.05
2022-08-16T22:46:28.900Z,19.02
2022-08-16T22:48:55.843Z,18.50
2022-08-16T22:51:25.110Z,19.95
2022-08-16T22:53:52.926Z,19.73
2022-08-16T22:56:20.009Z,21.55
2022-08-16T22:58:47.179Z,22.05
2022-08-16T23:01:15.709Z,22.73
2022-08-16T23:03:43.069Z,19.88
2022-08-16T23:06:11.185Z,21.25
2022-08-16T23:08:41.196Z,22.23
2022-08-16T23:11:14.343Z,22.80
2022-08-16T23:13:49.964Z,22.75
2022-08-16T23:16:33.418Z,23.80
2022-08-16T23:19:07.143Z,22.60
2022-08-16T23:21:35.083Z,25.85
2022-08-16T23:24:02.540Z,27.10
2022-08-16T23:26:46.564Z,30.25
2022-08-16T23:32:08.707Z,23.38
2022-08-16T23:34:35.568Z,26.60
2022-08-16T23:37:02.403Z,30.58
2022-08-16T23:39:29.521Z,29.65
2022-08-16T23:41:56.488Z,34.47
2022-08-16T23:44:57.176Z,31.35
2022-08-16T23:47:10.958Z,31.77
2022-08-16T23:49:58.508Z,31.15
2022-08-16T23:52:40.631Z,30.38
2022-08-16T23:55:12.006Z,32.58
2022-08-16T23:57:38.876Z,33.50
